createdAt,value
2022-12-23T00:00:29.567Z,12.70
2022-12-23T00:02:56.791Z,12.70
2022-12-23T00:05:23.770Z,12.70
2022-12-23T00:07:50.690Z,12.60
2022-12-23T00:10:17.673Z,12.60
2022-12-23T00:13:03.012Z,12.60
2022-12-23T00:15:29.873Z,12.60
2022-12-23T00:17:56.792Z,12.60
2022-12-23T00:20:23.771Z,12.60
2022-12-23T00:23:05.594Z,12.60
2022-12-23T00:25:40.828Z,12.60
2022-12-23T00:28:16.772Z,12.60
2022-12-23T00:30:59.274Z,12.50
2022-12-23T00:33:29.476Z,12.50
2022-12-23T00:35:56.733Z,12.50
2022-12-23T00:38:43.245Z,12.50
2022-12-23T00:41:34.486Z,12.50
2022-12-23T00:44:02.573Z,12.50
2022-12-23T00:46:29.648Z,12.50
2022-12-23T00:49:15.076Z,12.50
2022-12-23T00:51:41.971Z,12.50
2022-12-23T00:54:08.978Z,12.50
2022-12-23T00:56:36.051Z,12.50
2022-12-23T00:59:03.158Z,12.50
2022-12-23T01:01:48.756Z,12.50
2022-12-23T01:04:35.709Z,12.50
2022-12-23T01:07:03.343Z,12.40
2022-12-23T01:09:30.585Z,12.50
2022-12-23T01:11:57.543Z,12.40
2022-12-23T01:14:24.762Z,12.40
2022-12-23T01:16:51.657Z,12.40
2022-12-23T01:19:19.026Z,12.40
2022-12-23T01:21:45.997Z,12.40
2022-12-23T01:24:12.964Z,12.40
2022-12-23T01:26:39.814Z,12.40
2022-12-23T01:29:06.650Z,12.40
2022-12-23T01:31:33.671Z,12.50
2022-12-23T01:34:00.638Z,12.40
2022-12-23T01:36:27.553Z,12.40
2022-12-23T01:38:57.000Z,12.50
2022-12-23T01:41:45.441Z,12.40
2022-12-23T01:44:49.932Z,12.50
2022-12-23T01:47:35.584Z,12.40
2022-12-23T01:50:12.176Z,12.40
2022-12-23T01:52:46.896Z,12.40
2022-12-23T01:55:17.293Z,12.40
2022-12-23T01:57:44.923Z,12.40
2022-12-23T02:00:49.783Z,12.40
2022-12-23T02:03:35.388Z,12.40
2022-12-23T02:06:23.337Z,12.40
2022-12-23T02:09:25.402Z,12.40
2022-12-23T02:12:13.542Z,12.40
2022-12-23T02:15:14.077Z,12.40
2022-12-23T02:18:16.504Z,12.40
2022-12-23T02:20:49.452Z,12.40
2022-12-23T02:23:22.525Z,12.30
2022-12-23T02:26:26.239Z,12.30
2022-12-23T02:29:11.720Z,12.30
2022-12-23T02:31:41.506Z,12.30
2022-12-23T02:34:26.939Z,12.40
2022-12-23T02:37:10.521Z,12.30
2022-12-23T02:39:57.209Z,12.30
2022-12-23T02:42:31.016Z,12.30
2022-12-23T02:45:33.435Z,12.30
2022-12-23T02:48:06.409Z,12.20
2022-12-23T02:50:36.663Z,12.20
2022-12-23T02:53:18.845Z,12.30
2022-12-23T02:55:48.701Z,12.30
2022-12-23T02:58:19.669Z,12.20
2022-12-23T03:00:48.286Z,12.20
2022-12-23T03:03:17.284Z,12.20
2022-12-23T03:05:46.753Z,12.20
2022-12-23T03:08:30.435Z,12.20
2022-12-23T03:11:07.763Z,12.20
2022-12-23T03:14:11.079Z,12.20
2022-12-23T03:16:52.828Z,12.20
2022-12-23T03:19:32.402Z,12.20
2022-12-23T03:22:48.697Z,12.20
2022-12-23T03:25:24.536Z,12.20
2022-12-23T03:27:59.286Z,12.10
2022-12-23T03:30:27.673Z,12.10
2022-12-23T03:33:01.301Z,12.20
2022-12-23T03:35:36.899Z,12.20
2022-12-23T03:38:06.402Z,12.20
2022-12-23T03:40:43.287Z,12.20
2022-12-23T03:43:20.228Z,12.10
2022-12-23T03:45:56.004Z,12.20
2022-12-23T03:48:26.947Z,12.10
2022-12-23T03:51:03.072Z,12.20
2022-12-23T03:53:36.011Z,12.20
2022-12-23T03:56:08.894Z,12.10
2022-12-23T03:58:47.468Z,12.10
2022-12-23T04:01:46.378Z,12.20
2022-12-23T04:04:41.490Z,12.20
2022-12-23T04:07:23.743Z,12.20
2022-12-23T04:09:53.266Z,12.20
2022-12-23T04:12:24.027Z,12.10
2022-12-23T04:14:51.409Z,12.10
2022-12-23T04:17:19.175Z,12.10
2022-12-23T04:19:46.583Z,12.10
2022-12-23T04:22:15.679Z,12.10
2022-12-23T04:24:42.875Z,12.10
2022-12-23T04:27:13.339Z,12.10
2022-12-23T04:29:40.291Z,12.10
2022-12-23T04:32:08.437Z,12.10
2022-12-23T04:34:35.488Z,12.10
2022-12-23T04:37:02.649Z,12.10
2022-12-23T04:39:29.567Z,12.10
2022-12-23T04:41:56.491Z,12.10
2022-12-23T04:44:23.375Z,12.10
2022-12-23T04:46:50.337Z,12.10
2022-12-23T04:49:17.250Z,12.10
2022-12-23T04:51:44.133Z,12.10
2022-12-23T04:54:11.028Z,12.10
2022-12-23T04:56:37.913Z,12.10
2022-12-23T04:59:04.787Z,12.20
2022-12-23T05:01:31.802Z,12.20
2022-12-23T05:03:58.830Z,12.30
2022-12-23T05:06:25.696Z,12.30
2022-12-23T05:08:52.620Z,12.30
2022-12-23T05:11:19.530Z,12.30
2022-12-23T05:13:46.356Z,12.40
2022-12-23T05:16:13.325Z,12.40
2022-12-23T05:18:40.230Z,12.40
2022-12-23T05:21:07.184Z,12.40
2022-12-23T05:23:34.042Z,12.30
2022-12-23T05:26:00.959Z,12.30
2022-12-23T05:28:27.996Z,12.40
2022-12-23T05:31:03.128Z,12.40
2022-12-23T05:33:30.479Z,12.40
2022-12-23T05:35:58.133Z,12.40
2022-12-23T05:38:25.380Z,12.40
2022-12-23T05:40:52.392Z,12.40
2022-12-23T05:43:19.800Z,12.40
2022-12-23T05:45:47.632Z,12.40
2022-12-23T05:48:14.581Z,12.40
2022-12-23T05:50:42.019Z,12.40
2022-12-23T05:53:09.001Z,12.40
2022-12-23T05:55:36.407Z,12.40
2022-12-23T05:58:03.324Z,12.40
2022-12-23T06:00:30.281Z,12.40
2022-12-23T06:02:57.405Z,12.40
2022-12-23T06:05:24.345Z,12.40
2022-12-23T06:07:51.427Z,12.30
2022-12-23T06:10:18.434Z,12.30
2022-12-23T06:12:45.433Z,12.30
2022-12-23T06:15:12.645Z,12.30
2022-12-23T06:17:39.596Z,12.20
2022-12-23T06:20:07.131Z,12.30
2022-12-23T06:22:34.155Z,12.30
2022-12-23T06:25:00.993Z,12.20
2022-12-23T06:27:27.873Z,12.30
2022-12-23T06:29:54.811Z,12.30
2022-12-23T06:32:21.736Z,12.30
2022-12-23T06:34:53.271Z,12.40
2022-12-23T06:37:21.139Z,12.40
2022-12-23T06:39:48.102Z,12.40
2022-12-23T06:42:14.944Z,12.40
2022-12-23T06:44:41.886Z,12.40
2022-12-23T06:47:08.778Z,12.40
2022-12-23T06:49:35.652Z,12.40
2022-12-23T06:52:02.619Z,12.40
2022-12-23T06:54:29.600Z,12.50
2022-12-23T06:56:56.593Z,12.40
2022-12-23T06:59:23.568Z,12.50
2022-12-23T07:01:50.671Z,12.50
2022-12-23T07:04:17.723Z,12.50
2022-12-23T07:06:44.673Z,12.50
2022-12-23T07:09:11.627Z,12.50
2022-12-23T07:11:38.587Z,12.50
2022-12-23T07:14:05.494Z,12.50
2022-12-23T07:16:32.519Z,12.50
2022-12-23T07:18:59.452Z,12.50
2022-12-23T07:21:29.594Z,12.50
2022-12-23T07:23:56.957Z,12.50
2022-12-23T07:26:23.860Z,12.50
2022-12-23T07:28:50.720Z,12.50
2022-12-23T07:31:17.786Z,12.60
2022-12-23T07:33:44.893Z,12.60
2022-12-23T07:36:11.799Z,12.60
2022-12-23T07:38:38.694Z,12.60
2022-12-23T07:41:05.667Z,12.60
2022-12-23T07:43:32.536Z,12.60
2022-12-23T07:46:00.817Z,12.60
2022-12-23T07:48:28.242Z,12.60
2022-12-23T07:51:03.596Z,12.60
2022-12-23T07:53:30.583Z,12.60
2022-12-23T07:55:57.528Z,12.60
2022-12-23T07:58:25.093Z,12.60
2022-12-23T08:00:58.888Z,12.70
2022-12-23T08:03:25.879Z,12.70
2022-12-23T08:06:12.707Z,12.70
2022-12-23T08:08:40.897Z,12.60
2022-12-23T08:11:10.142Z,12.70
2022-12-23T08:13:40.476Z,12.70
2022-12-23T08:16:07.989Z,12.60
2022-12-23T08:18:38.083Z,12.70
2022-12-23T08:21:08.143Z,12.60
2022-12-23T08:23:35.204Z,12.70
2022-12-23T08:26:10.399Z,12.70
2022-12-23T08:28:38.708Z,12.70
2022-12-23T08:31:09.834Z,12.70
2022-12-23T08:33:38.261Z,12.70
2022-12-23T08:36:07.684Z,12.70
2022-12-23T08:38:35.026Z,12.70
2022-12-23T08:41:02.010Z,12.70
2022-12-23T08:43:35.263Z,12.70
2022-12-23T08:46:03.042Z,12.70
2022-12-23T08:48:30.035Z,12.70
2022-12-23T08:50:57.066Z,12.80
2022-12-23T08:53:23.868Z,12.70
2022-12-23T08:55:50.830Z,12.80
2022-12-23T08:58:17.664Z,12.80
2022-12-23T09:00:44.576Z,12.80
2022-12-23T09:03:11.570Z,12.80
2022-12-23T09:05:42.272Z,12.80
2022-12-23T09:08:09.842Z,12.80
2022-12-23T09:10:44.134Z,12.80
2022-12-23T09:13:17.976Z,12.80
2022-12-23T09:15:49.414Z,12.80
2022-12-23T09:18:16.468Z,12.80
2022-12-23T09:20:43.491Z,12.80
2022-12-23T09:23:10.360Z,12.80
2022-12-23T09:25:37.423Z,12.80
2022-12-23T09:28:06.718Z,12.80
2022-12-23T09:30:33.518Z,12.80
2022-12-23T09:33:00.402Z,12.80
2022-12-23T09:35:27.261Z,12.80
2022-12-23T09:37:54.144Z,12.80
2022-12-23T09:40:21.876Z,12.80
2022-12-23T09:43:21.395Z,12.80
2022-12-23T09:46:00.275Z,12.80
2022-12-23T09:48:33.194Z,12.80
2022-12-23T09:51:01.865Z,12.80
2022-12-23T09:53:54.643Z,12.80
2022-12-23T09:56:45.783Z,12.80
2022-12-23T09:59:15.579Z,12.80
2022-12-23T10:01:54.348Z,12.90
2022-12-23T10:04:33.330Z,12.80
2022-12-23T10:07:06.409Z,12.80
2022-12-23T10:09:38.012Z,12.90
2022-12-23T10:12:32.852Z,12.90
2022-12-23T10:15:06.933Z,12.90
2022-12-23T10:17:41.691Z,12.90
2022-12-23T10:20:20.288Z,12.90
2022-12-23T10:22:47.501Z,12.90
2022-12-23T10:25:30.895Z,12.90
2022-12-23T10:27:57.784Z,12.90
2022-12-23T10:30:54.101Z,12.90
2022-12-23T10:33:22.084Z,12.90
2022-12-23T10:36:10.672Z,12.90
2022-12-23T10:38:56.416Z,13.00
2022-12-23T10:41:32.535Z,13.00
2022-12-23T10:44:24.099Z,13.00
2022-12-23T10:47:06.340Z,13.00
2022-12-23T10:49:54.631Z,13.00
2022-12-23T10:52:25.887Z,13.00
2022-12-23T10:54:52.755Z,13.00
2022-12-23T10:57:20.624Z,12.90
2022-12-23T10:59:47.471Z,13.00
2022-12-23T11:02:15.076Z,13.00
2022-12-23T11:04:47.347Z,13.00
2022-12-23T11:07:43.480Z,13.00
2022-12-23T11:10:13.206Z,13.00
2022-12-23T11:12:46.105Z,13.00
2022-12-23T11:15:28.392Z,13.00
2022-12-23T11:18:20.731Z,13.00
2022-12-23T11:21:06.027Z,13.00
2022-12-23T11:23:36.521Z,13.00
2022-12-23T11:26:07.716Z,13.00
2022-12-23T11:28:47.046Z,13.00
2022-12-23T11:31:17.052Z,13.00
2022-12-23T11:34:04.175Z,13.00
2022-12-23T11:36:32.408Z,13.00
2022-12-23T11:39:14.364Z,13.00
2022-12-23T11:41:47.810Z,13.00
2022-12-23T11:44:26.021Z,13.00
2022-12-23T11:46:53.513Z,13.00
2022-12-23T11:49:30.334Z,13.00
2022-12-23T11:52:13.798Z,13.00
2022-12-23T11:54:40.782Z,13.00
2022-12-23T11:57:18.235Z,13.00
2022-12-23T11:59:51.025Z,13.00
2022-12-23T12:02:21.032Z,13.00
2022-12-23T12:05:18.118Z,13.00
2022-12-23T12:07:45.438Z,13.00
2022-12-23T12:10:31.718Z,13.00
2022-12-23T12:13:03.443Z,13.00
2022-12-23T12:15:44.689Z,13.00
2022-12-23T12:18:18.954Z,13.00
2022-12-23T12:20:50.371Z,13.00
2022-12-23T12:23:48.882Z,13.00
2022-12-23T12:26:36.147Z,13.00
2022-12-23T12:29:47.905Z,13.00
2022-12-23T12:32:52.468Z,13.00
2022-12-23T12:35:43.414Z,13.00
2022-12-23T12:38:16.400Z,13.00
2022-12-23T12:40:48.073Z,13.00
2022-12-23T12:43:18.078Z,13.00
2022-12-23T12:45:58.054Z,13.00
2022-12-23T12:48:46.221Z,13.00
2022-12-23T12:51:23.019Z,13.00
2022-12-23T12:54:04.689Z,13.00
2022-12-23T12:56:43.940Z,13.00
2022-12-23T12:59:19.809Z,13.00
2022-12-23T13:02:08.436Z,13.00
2022-12-23T13:05:03.094Z,13.00
2022-12-23T13:07:48.505Z,13.00
2022-12-23T13:10:44.541Z,13.00
2022-12-23T13:13:32.264Z,13.00
2022-12-23T13:16:26.102Z,13.00
2022-12-23T13:19:13.522Z,13.00
2022-12-23T13:21:58.425Z,13.00
2022-12-23T13:24:35.353Z,13.00
2022-12-23T13:27:21.621Z,13.00
2022-12-23T13:30:13.875Z,13.00
2022-12-23T13:32:59.563Z,13.00
2022-12-23T13:35:35.313Z,13.00
2022-12-23T13:38:21.038Z,13.00
2022-12-23T13:41:08.176Z,13.00
2022-12-23T13:43:46.116Z,13.00
2022-12-23T13:46:45.150Z,13.00
2022-12-23T13:49:18.369Z,13.00
2022-12-23T13:52:38.217Z,13.00
2022-12-23T13:55:27.651Z,13.10
2022-12-23T13:58:03.840Z,13.10
2022-12-23T14:00:32.752Z,13.10
2022-12-23T14:03:02.494Z,13.10
2022-12-23T14:05:50.753Z,13.10
2022-12-23T14:08:29.334Z,13.10
2022-12-23T14:11:04.391Z,13.10
2022-12-23T14:13:52.249Z,13.20
2022-12-23T14:16:41.712Z,13.20
2022-12-23T14:19:35.955Z,13.20
2022-12-23T14:22:11.733Z,13.20
2022-12-23T14:24:53.644Z,13.20
2022-12-23T14:28:14.794Z,13.20
2022-12-23T14:30:45.844Z,13.20
2022-12-23T14:33:18.995Z,13.20
2022-12-23T14:35:45.890Z,13.20
2022-12-23T14:38:15.777Z,13.30
2022-12-23T14:40:42.758Z,13.30
2022-12-23T14:43:30.288Z,13.20
2022-12-23T14:46:06.127Z,13.20
2022-12-23T14:48:37.091Z,13.30
2022-12-23T14:51:10.310Z,13.20
2022-12-23T14:53:52.365Z,13.30
2022-12-23T14:56:19.326Z,13.30
2022-12-23T14:58:46.132Z,13.30
2022-12-23T15:01:34.128Z,13.30
2022-12-23T15:04:18.320Z,13.30
2022-12-23T15:06:48.525Z,13.30
2022-12-23T15:09:34.915Z,13.30
2022-12-23T15:12:11.981Z,13.30
2022-12-23T15:14:45.338Z,13.30
2022-12-23T15:17:26.891Z,13.30
2022-12-23T15:20:02.249Z,13.30
2022-12-23T15:22:32.797Z,13.30
2022-12-23T15:24:59.977Z,13.30
2022-12-23T15:27:29.615Z,13.30
2022-12-23T15:29:57.613Z,13.30
2022-12-23T15:32:25.821Z,13.30
2022-12-23T15:34:55.659Z,13.30
2022-12-23T15:37:28.985Z,13.30
2022-12-23T15:40:04.799Z,13.30
2022-12-23T15:42:38.528Z,13.30
2022-12-23T15:45:30.950Z,13.30
2022-12-23T15:47:57.921Z,13.20
2022-12-23T15:50:24.921Z,13.20
2022-12-23T15:52:54.737Z,13.20
2022-12-23T15:55:27.389Z,13.20
2022-12-23T15:57:54.600Z,13.20
2022-12-23T16:00:36.323Z,13.20
2022-12-23T16:03:08.767Z,13.10
2022-12-23T16:05:39.378Z,13.10
2022-12-23T16:08:23.066Z,13.10
2022-12-23T16:11:11.860Z,13.10
2022-12-23T16:13:43.070Z,13.00
2022-12-23T16:16:32.662Z,13.00
2022-12-23T16:19:00.247Z,13.00
2022-12-23T16:21:34.591Z,13.00
2022-12-23T16:24:03.037Z,12.90
2022-12-23T16:26:29.963Z,12.90
2022-12-23T16:29:00.836Z,12.90
2022-12-23T16:31:28.212Z,12.90
2022-12-23T16:33:58.269Z,12.90
2022-12-23T16:36:28.267Z,12.90
2022-12-23T16:39:07.578Z,13.00
2022-12-23T16:41:35.314Z,13.00
2022-12-23T16:44:03.086Z,13.00
2022-12-23T16:46:36.101Z,13.00
2022-12-23T16:49:06.422Z,13.10
2022-12-23T16:51:34.359Z,13.10
2022-12-23T16:54:01.675Z,13.10
2022-12-23T16:56:35.043Z,13.10
2022-12-23T16:59:02.217Z,13.10
2022-12-23T17:01:35.849Z,13.10
2022-12-23T17:04:02.764Z,13.10
2022-12-23T17:06:29.694Z,13.10
2022-12-23T17:08:59.404Z,13.10
2022-12-23T17:11:53.363Z,13.10
2022-12-23T17:14:23.457Z,13.10
2022-12-23T17:16:51.398Z,13.10
2022-12-23T17:19:27.291Z,13.10
2022-12-23T17:22:02.123Z,13.10
2022-12-23T17:24:29.225Z,13.00
2022-12-23T17:26:57.129Z,13.00
2022-12-23T17:29:24.161Z,13.00
2022-12-23T17:31:51.489Z,13.00
2022-12-23T17:34:20.912Z,13.00
2022-12-23T17:36:50.562Z,13.00
2022-12-23T17:39:18.862Z,13.00
2022-12-23T17:41:46.093Z,13.00
2022-12-23T17:44:17.413Z,13.00
2022-12-23T17:46:45.641Z,13.00
2022-12-23T17:49:12.680Z,13.00
2022-12-23T17:51:40.811Z,13.00
2022-12-23T17:54:23.787Z,13.00
2022-12-23T17:56:51.461Z,12.90
2022-12-23T17:59:18.445Z,12.90
2022-12-23T18:01:45.442Z,12.90
2022-12-23T18:04:12.383Z,12.90
2022-12-23T18:06:39.260Z,12.90
2022-12-23T18:09:06.153Z,12.90
2022-12-23T18:11:44.828Z,12.90
2022-12-23T18:14:17.940Z,12.80
2022-12-23T18:16:45.180Z,12.80
2022-12-23T18:19:17.679Z,12.80
2022-12-23T18:21:44.618Z,12.80
2022-12-23T18:24:11.613Z,12.80
2022-12-23T18:26:38.600Z,12.90
2022-12-23T18:29:05.526Z,12.90
2022-12-23T18:31:32.842Z,12.90
2022-12-23T18:34:00.135Z,12.90
2022-12-23T18:36:35.850Z,12.90
2022-12-23T18:39:02.796Z,12.90
2022-12-23T18:41:29.690Z,12.90
2022-12-23T18:43:56.816Z,12.90
2022-12-23T18:46:23.845Z,12.90
2022-12-23T18:48:51.632Z,12.90
2022-12-23T18:51:22.343Z,12.90
2022-12-23T18:53:49.385Z,12.90
2022-12-23T18:56:20.066Z,12.90
2022-12-23T18:58:47.263Z,12.90
2022-12-23T19:01:16.567Z,12.90
2022-12-23T19:03:44.366Z,12.90
2022-12-23T19:06:14.009Z,12.90
2022-12-23T19:08:42.813Z,12.90
2022-12-23T19:11:20.771Z,12.90
2022-12-23T19:13:47.839Z,12.90
2022-12-23T19:16:17.387Z,12.90
2022-12-23T19:18:45.389Z,12.90
2022-12-23T19:21:12.608Z,12.90
2022-12-23T19:23:41.153Z,12.90
2022-12-23T19:26:12.862Z,12.90
2022-12-23T19:28:44.132Z,12.90
2022-12-23T19:31:13.115Z,12.90
2022-12-23T19:33:41.881Z,12.90
2022-12-23T19:36:13.695Z,12.90
2022-12-23T19:38:40.957Z,12.90
2022-12-23T19:41:08.966Z,12.90
2022-12-23T19:43:37.965Z,12.90
2022-12-23T19:46:07.420Z,12.90
2022-12-23T19:48:35.091Z,12.90
2022-12-23T19:51:07.288Z,12.90
2022-12-23T19:53:34.792Z,12.90
2022-12-23T19:56:04.758Z,12.90
2022-12-23T19:58:33.813Z,12.90
2022-12-23T20:01:10.056Z,12.80
2022-12-23T20:03:37.792Z,12.90
2022-12-23T20:06:06.726Z,12.80
2022-12-23T20:08:34.678Z,12.90
2022-12-23T20:11:08.713Z,12.90
2022-12-23T20:13:36.610Z,12.90
2022-12-23T20:16:04.491Z,12.90
2022-12-23T20:18:31.539Z,12.90
2022-12-23T20:20:59.578Z,12.90
2022-12-23T20:23:27.117Z,12.90
2022-12-23T20:25:54.227Z,12.90
2022-12-23T20:28:21.262Z,12.90
2022-12-23T20:30:48.706Z,13.00
2022-12-23T20:33:16.162Z,13.00
2022-12-23T20:35:43.199Z,13.00
2022-12-23T20:38:10.071Z,13.00
2022-12-23T20:40:36.924Z,13.00
2022-12-23T20:43:04.886Z,13.00
2022-12-23T20:45:31.962Z,13.00
2022-12-23T20:47:58.839Z,13.00
2022-12-23T20:50:25.701Z,13.10
2022-12-23T20:52:52.551Z,13.00
2022-12-23T20:55:19.456Z,13.00
2022-12-23T20:57:46.323Z,13.00
2022-12-23T21:00:14.010Z,13.00
2022-12-23T21:02:40.943Z,13.00
2022-12-23T21:05:08.349Z,13.00
2022-12-23T21:07:35.349Z,13.00
2022-12-23T21:10:02.215Z,13.00
2022-12-23T21:12:29.100Z,13.00
2022-12-23T21:14:55.948Z,13.00
2022-12-23T21:17:23.869Z,12.90
2022-12-23T21:19:50.811Z,12.90
2022-12-23T21:22:17.715Z,12.90
2022-12-23T21:24:44.614Z,12.90
2022-12-23T21:27:11.462Z,12.90
2022-12-23T21:29:38.348Z,12.90
2022-12-23T21:32:05.269Z,13.00
2022-12-23T21:34:32.105Z,13.00
2022-12-23T21:36:59.100Z,13.00
2022-12-23T21:39:27.020Z,12.90
2022-12-23T21:41:53.928Z,12.90
2022-12-23T21:44:20.805Z,12.90
2022-12-23T21:46:50.314Z,12.90
2022-12-23T21:49:17.653Z,12.90
2022-12-23T21:51:44.555Z,12.90
2022-12-23T21:54:12.888Z,12.90
2022-12-23T21:56:40.918Z,12.90
2022-12-23T21:59:13.301Z,12.90
2022-12-23T22:01:41.357Z,12.90
2022-12-23T22:04:08.330Z,12.90
2022-12-23T22:06:37.726Z,12.90
2022-12-23T22:09:06.126Z,12.90
2022-12-23T22:11:35.136Z,12.80
2022-12-23T22:14:03.517Z,12.80
2022-12-23T22:16:31.442Z,12.80
2022-12-23T22:18:59.719Z,12.70
2022-12-23T22:21:29.095Z,12.70
2022-12-23T22:23:56.800Z,12.70
2022-12-23T22:26:26.453Z,12.60
2022-12-23T22:28:55.439Z,12.50
2022-12-23T22:31:40.652Z,12.50
2022-12-23T22:34:10.893Z,12.40
2022-12-23T22:36:37.930Z,12.40
2022-12-23T22:39:07.368Z,12.40
2022-12-23T22:41:35.058Z,12.40
2022-12-23T22:44:01.892Z,12.40
2022-12-23T22:46:29.365Z,12.40
2022-12-23T22:48:56.538Z,12.40
2022-12-23T22:51:26.603Z,12.40
2022-12-23T22:53:54.374Z,12.40
2022-12-23T22:56:22.873Z,12.40
2022-12-23T22:58:50.799Z,12.30
2022-12-23T23:01:27.593Z,12.40
2022-12-23T23:03:59.389Z,12.40
2022-12-23T23:06:28.663Z,12.40
2022-12-23T23:08:55.863Z,12.40
2022-12-23T23:11:23.294Z,12.40
2022-12-23T23:13:50.337Z,12.40
2022-12-23T23:16:17.470Z,12.40
2022-12-23T23:18:44.424Z,12.40
2022-12-23T23:21:16.357Z,12.40
2022-12-23T23:23:43.355Z,12.40
2022-12-23T23:26:10.416Z,12.40
2022-12-23T23:28:39.359Z,12.40
2022-12-23T23:31:40.589Z,12.40
2022-12-23T23:33:54.314Z,12.40
2022-12-23T23:36:21.142Z,12.50
2022-12-23T23:38:48.115Z,12.40
2022-12-23T23:41:18.906Z,12.50
2022-12-23T23:43:49.585Z,12.50
2022-12-23T23:46:16.498Z,12.50
2022-12-23T23:48:43.451Z,12.50
2022-12-23T23:51:10.350Z,12.50
2022-12-23T23:53:37.217Z,12.50
2022-12-23T23:56:06.722Z,12.50
2022-12-23T23:58:34.553Z,12.50
